首页
METAR-TAF:

METAR-TAF

机场 :

奥兰多国际机场

奥兰多, 佛罗里达州, 美国

纬度: 28-25-02N, 经度: 081-19-30W, 海拔: 29米

当前天气观测

该预报发布于28分钟前的16:53 UTC
风速7节,风向南转南东
温度 31°C
湿度 55%
气压 1018 hPa
能見度: 16.1公里
少量云层高于3200英尺
散云层高于16000英尺
多云层高于25000英尺

METAR: KMCO 051653Z 16007KT 10SM FEW032 SCT160 BKN250 31/21 A3006 RMK AO2 SLP178 T03110211

时间: 13:21 (17:21 UTC)

预报

该预报发布于2小时和21分钟前的15:00 UTC
预报有效从05日的 15点(UTC)到 06日的 18点(UTC)
风速4节,风向
能見度: 10公里
少量云层高于2500英尺
多云层高于12000英尺
阴天层高于20000英尺
从 05日的 1800点(UTC)
风速5节,风向
能見度: 10公里
散云层高于4000英尺
多云层高于11000英尺
阴天层高于15000英尺
附近有阵雨
从 05日的 2000点(UTC)
风速6节,风向
能見度: 10公里
散云层高于3000英尺, 积雨云.
多云层高于6000英尺
阴天层高于12000英尺
附近有雷暴
短暂存在
从 05日的 21点(UTC)到 05日的 24点(UTC)
能見度: 4.8公里
散云层高于2000英尺
多云层高于3000英尺, 积雨云.
雷暴, 雨
从 06日的 0100点(UTC)
风速4节,风向
能見度: 10公里
散云层高于2000英尺
多云层高于10000英尺
附近有阵雨
从 06日的 1500点(UTC)
风速7节,风向东转东南
能見度: 10公里
多云层高于4000英尺
附近有阵雨

TAF: KMCO 051500Z 0515/0618 17004KT P6SM FEW025 BKN120 OVC200 FM051800 18005KT P6SM VCSH SCT040 BKN110 OVC150 FM052000 19006KT P6SM VCTS SCT030CB BKN060 OVC120 TEMPO 0521/0524 3SM TSRA SCT020 BKN030CB FM060100 09004KT P6SM VCSH SCT020 BKN100 FM061500 12007KT P6SM VCSH BKN040

超过4000个机场的气象观测和天气预报(METAR&TAF报告)。

可查询的气象台以黄色和红色小点在地图上表示。

将鼠标移到小点上方,可查看气象台名称。

然后点击查看天气观测和预报。

如需切换地图:点击带黑十字的绿色按钮放大地图;点击带横线的绿色按钮缩小地图;或者点击绿色箭头查看邻近地区的地图。


METAR-TAF: